sensor_id;sensor_type;location;lat;lon;timestamp;P1;durP1;ratioP1;P2;durP2;ratioP2
17169;SDS011;8700;48.222;16.342;2023-10-19T00:02:26;25.13;;;22.80;;
17169;SDS011;8700;48.222;16.342;2023-10-19T00:05:49;23.90;;;21.37;;
17169;SDS011;8700;48.222;16.342;2023-10-19T00:09:14;23.80;;;21.77;;
17169;SDS011;8700;48.222;16.342;2023-10-19T00:12:39;25.57;;;23.07;;
17169;SDS011;8700;48.222;16.342;2023-10-19T00:16:05;24.97;;;22.47;;
17169;SDS011;8700;48.222;16.342;2023-10-19T00:19:38;23.63;;;21.53;;
17169;SDS011;8700;48.222;16.342;2023-10-19T00:23:18;24.10;;;21.93;;
17169;SDS011;8700;48.222;16.342;2023-10-19T00:26:49;25.43;;;23.13;;
17169;SDS011;8700;48.222;16.342;2023-10-19T00:30:14;23.27;;;21.17;;
17169;SDS011;8700;48.222;16.342;2023-10-19T00:33:38;25.77;;;23.50;;
17169;SDS011;8700;48.222;16.342;2023-10-19T00:37:05;24.97;;;22.60;;
17169;SDS011;8700;48.222;16.342;2023-10-19T00:40:30;25.30;;;22.93;;
17169;SDS011;8700;48.222;16.342;2023-10-19T00:43:57;25.73;;;23.30;;
17169;SDS011;8700;48.222;16.342;2023-10-19T00:47:27;25.87;;;23.40;;
17169;SDS011;8700;48.222;16.342;2023-10-19T00:51:00;24.97;;;22.80;;
17169;SDS011;8700;48.222;16.342;2023-10-19T00:54:36;25.83;;;23.33;;
17169;SDS011;8700;48.222;16.342;2023-10-19T00:58:13;25.90;;;23.63;;
17169;SDS011;8700;48.222;16.342;2023-10-19T01:01:38;25.90;;;23.57;;
17169;SDS011;8700;48.222;16.342;2023-10-19T01:05:04;25.17;;;22.83;;
17169;SDS011;8700;48.222;16.342;2023-10-19T01:08:30;25.90;;;23.60;;
17169;SDS011;8700;48.222;16.342;2023-10-19T01:12:03;25.80;;;23.50;;
17169;SDS011;8700;48.222;16.342;2023-10-19T01:15:42;26.50;;;23.97;;
17169;SDS011;8700;48.222;16.342;2023-10-19T01:19:09;25.50;;;23.40;;
17169;SDS011;8700;48.222;16.342;2023-10-19T01:22:32;26.90;;;24.70;;
17169;SDS011;8700;48.222;16.342;2023-10-19T01:25:58;25.53;;;23.23;;
17169;SDS011;8700;48.222;16.342;2023-10-19T01:29:27;26.53;;;24.03;;
17169;SDS011;8700;48.222;16.342;2023-10-19T01:32:49;26.90;;;24.47;;
17169;SDS011;8700;48.222;16.342;2023-10-19T01:36:12;25.30;;;23.13;;
17169;SDS011;8700;48.222;16.342;2023-10-19T01:39:48;27.80;;;25.13;;
17169;SDS011;8700;48.222;16.342;2023-10-19T01:43:11;28.83;;;26.03;;
17169;SDS011;8700;48.222;16.342;2023-10-19T01:46:42;26.40;;;23.83;;
17169;SDS011;8700;48.222;16.342;2023-10-19T01:50:06;26.93;;;24.43;;
17169;SDS011;8700;48.222;16.342;2023-10-19T01:53:40;27.17;;;24.63;;
17169;SDS011;8700;48.222;16.342;2023-10-19T01:57:09;28.37;;;25.87;;
17169;SDS011;8700;48.222;16.342;2023-10-19T02:00:37;27.20;;;24.53;;
17169;SDS011;8700;48.222;16.342;2023-10-19T02:04:03;29.37;;;26.77;;
17169;SDS011;8700;48.222;16.342;2023-10-19T02:07:29;27.60;;;25.10;;
17169;SDS011;8700;48.222;16.342;2023-10-19T02:10:55;29.30;;;26.33;;
17169;SDS011;8700;48.222;16.342;2023-10-19T02:14:18;29.75;;;26.83;;
17169;SDS011;8700;48.222;16.342;2023-10-19T02:17:45;28.98;;;26.35;;
17169;SDS011;8700;48.222;16.342;2023-10-19T02:21:09;29.40;;;26.50;;
17169;SDS011;8700;48.222;16.342;2023-10-19T02:24:33;30.43;;;27.50;;
17169;SDS011;8700;48.222;16.342;2023-10-19T02:27:56;29.67;;;27.15;;
17169;SDS011;8700;48.222;16.342;2023-10-19T02:31:20;29.00;;;26.43;;
17169;SDS011;8700;48.222;16.342;2023-10-19T02:34:46;30.30;;;27.40;;
17169;SDS011;8700;48.222;16.342;2023-10-19T02:38:10;29.57;;;26.77;;
17169;SDS011;8700;48.222;16.342;2023-10-19T02:41:33;29.83;;;27.17;;
17169;SDS011;8700;48.222;16.342;2023-10-19T02:44:59;32.00;;;29.10;;
17169;SDS011;8700;48.222;16.342;2023-10-19T02:48:22;31.27;;;28.50;;
17169;SDS011;8700;48.222;16.342;2023-10-19T02:51:46;31.83;;;28.77;;
17169;SDS011;8700;48.222;16.342;2023-10-19T02:55:09;30.67;;;27.77;;
17169;SDS011;8700;48.222;16.342;2023-10-19T02:58:32;31.00;;;28.10;;
17169;SDS011;8700;48.222;16.342;2023-10-19T03:01:56;31.50;;;28.70;;
17169;SDS011;8700;48.222;16.342;2023-10-19T03:05:27;31.87;;;28.97;;
17169;SDS011;8700;48.222;16.342;2023-10-19T03:08:52;31.97;;;29.03;;
17169;SDS011;8700;48.222;16.342;2023-10-19T03:12:18;31.93;;;29.13;;
17169;SDS011;8700;48.222;16.342;2023-10-19T03:15:45;32.90;;;29.67;;
17169;SDS011;8700;48.222;16.342;2023-10-19T03:19:11;32.73;;;29.83;;
17169;SDS011;8700;48.222;16.342;2023-10-19T03:22:35;31.17;;;28.47;;
17169;SDS011;8700;48.222;16.342;2023-10-19T03:26:00;32.90;;;29.87;;
17169;SDS011;8700;48.222;16.342;2023-10-19T03:29:39;34.13;;;31.00;;
17169;SDS011;8700;48.222;16.342;2023-10-19T03:33:07;36.23;;;32.40;;
17169;SDS011;8700;48.222;16.342;2023-10-19T03:36:32;33.93;;;30.93;;
17169;SDS011;8700;48.222;16.342;2023-10-19T03:39:57;34.30;;;31.17;;
17169;SDS011;8700;48.222;16.342;2023-10-19T03:43:27;34.40;;;31.20;;
17169;SDS011;8700;48.222;16.342;2023-10-19T03:46:50;36.27;;;32.97;;
17169;SDS011;8700;48.222;16.342;2023-10-19T03:50:17;36.70;;;33.30;;
17169;SDS011;8700;48.222;16.342;2023-10-19T03:53:43;34.37;;;31.27;;
17169;SDS011;8700;48.222;16.342;2023-10-19T03:57:15;36.00;;;32.67;;
17169;SDS011;8700;48.222;16.342;2023-10-19T04:00:46;35.40;;;32.07;;
17169;SDS011;8700;48.222;16.342;2023-10-19T04:04:11;34.00;;;30.70;;
17169;SDS011;8700;48.222;16.342;2023-10-19T04:07:36;36.00;;;32.57;;
17169;SDS011;8700;48.222;16.342;2023-10-19T04:11:05;35.77;;;32.40;;
17169;SDS011;8700;48.222;16.342;2023-10-19T04:14:42;36.37;;;32.87;;
17169;SDS011;8700;48.222;16.342;2023-10-19T04:18:06;33.00;;;30.07;;
17169;SDS011;8700;48.222;16.342;2023-10-19T04:21:32;36.90;;;33.60;;
17169;SDS011;8700;48.222;16.342;2023-10-19T04:24:58;35.83;;;32.63;;
17169;SDS011;8700;48.222;16.342;2023-10-19T04:28:22;33.93;;;30.50;;
17169;SDS011;8700;48.222;16.342;2023-10-19T04:31:57;36.37;;;32.63;;
17169;SDS011;8700;48.222;16.342;2023-10-19T04:35:22;35.00;;;31.80;;
17169;SDS011;8700;48.222;16.342;2023-10-19T04:38:50;35.17;;;31.77;;
17169;SDS011;8700;48.222;16.342;2023-10-19T04:42:14;37.40;;;33.87;;
17169;SDS011;8700;48.222;16.342;2023-10-19T04:45:39;39.80;;;35.90;;
17169;SDS011;8700;48.222;16.342;2023-10-19T04:49:03;37.40;;;33.80;;
17169;SDS011;8700;48.222;16.342;2023-10-19T04:52:29;35.23;;;31.77;;
17169;SDS011;8700;48.222;16.342;2023-10-19T04:55:53;35.40;;;31.93;;
17169;SDS011;8700;48.222;16.342;2023-10-19T04:59:16;35.67;;;32.07;;
17169;SDS011;8700;48.222;16.342;2023-10-19T05:02:43;40.97;;;37.27;;
17169;SDS011;8700;48.222;16.342;2023-10-19T05:06:08;36.20;;;32.73;;
17169;SDS011;8700;48.222;16.342;2023-10-19T05:09:36;34.57;;;31.27;;
17169;SDS011;8700;48.222;16.342;2023-10-19T05:13:02;35.67;;;32.20;;
17169;SDS011;8700;48.222;16.342;2023-10-19T05:16:25;35.37;;;32.17;;
17169;SDS011;8700;48.222;16.342;2023-10-19T05:19:48;34.67;;;31.58;;
17169;SDS011;8700;48.222;16.342;2023-10-19T05:23:17;36.33;;;33.10;;
17169;SDS011;8700;48.222;16.342;2023-10-19T05:26:42;35.83;;;32.30;;
17169;SDS011;8700;48.222;16.342;2023-10-19T05:30:07;37.40;;;34.00;;
17169;SDS011;8700;48.222;16.342;2023-10-19T05:33:34;33.53;;;30.43;;
17169;SDS011;8700;48.222;16.342;2023-10-19T05:36:57;34.77;;;31.67;;
17169;SDS011;8700;48.222;16.342;2023-10-19T05:40:23;35.57;;;32.27;;
17169;SDS011;8700;48.222;16.342;2023-10-19T05:43:54;36.63;;;33.30;;
17169;SDS011;8700;48.222;16.342;2023-10-19T05:47:17;34.50;;;31.40;;
17169;SDS011;8700;48.222;16.342;2023-10-19T05:50:42;34.50;;;31.33;;
17169;SDS011;8700;48.222;16.342;2023-10-19T05:54:08;32.90;;;29.97;;
17169;SDS011;8700;48.222;16.342;2023-10-19T05:57:33;34.63;;;31.47;;
17169;SDS011;8700;48.222;16.342;2023-10-19T06:01:03;36.10;;;32.47;;
17169;SDS011;8700;48.222;16.342;2023-10-19T06:04:29;36.20;;;32.73;;
17169;SDS011;8700;48.222;16.342;2023-10-19T06:07:53;35.83;;;32.63;;
17169;SDS011;8700;48.222;16.342;2023-10-19T06:11:17;37.73;;;34.03;;
17169;SDS011;8700;48.222;16.342;2023-10-19T06:14:43;37.10;;;33.43;;
17169;SDS011;8700;48.222;16.342;2023-10-19T06:18:09;37.05;;;33.67;;
17169;SDS011;8700;48.222;16.342;2023-10-19T06:21:33;35.80;;;32.40;;
17169;SDS011;8700;48.222;16.342;2023-10-19T06:24:59;36.38;;;33.08;;
17169;SDS011;8700;48.222;16.342;2023-10-19T06:28:23;36.10;;;32.60;;
17169;SDS011;8700;48.222;16.342;2023-10-19T06:31:45;35.63;;;32.28;;
17169;SDS011;8700;48.222;16.342;2023-10-19T06:35:11;35.30;;;32.25;;
17169;SDS011;8700;48.222;16.342;2023-10-19T06:38:36;34.70;;;31.70;;
17169;SDS011;8700;48.222;16.342;2023-10-19T06:42:02;34.15;;;31.02;;
17169;SDS011;8700;48.222;16.342;2023-10-19T06:45:25;36.80;;;33.45;;
17169;SDS011;8700;48.222;16.342;2023-10-19T06:48:50;33.08;;;30.05;;
17169;SDS011;8700;48.222;16.342;2023-10-19T06:52:22;34.90;;;31.75;;
17169;SDS011;8700;48.222;16.342;2023-10-19T06:55:45;37.25;;;33.90;;
17169;SDS011;8700;48.222;16.342;2023-10-19T06:59:10;37.08;;;33.85;;
17169;SDS011;8700;48.222;16.342;2023-10-19T07:02:34;35.53;;;32.10;;
17169;SDS011;8700;48.222;16.342;2023-10-19T07:05:58;37.28;;;33.72;;
17169;SDS011;8700;48.222;16.342;2023-10-19T07:09:24;35.80;;;32.53;;
17169;SDS011;8700;48.222;16.342;2023-10-19T07:12:48;34.95;;;31.77;;
17169;SDS011;8700;48.222;16.342;2023-10-19T07:16:18;36.13;;;32.55;;
17169;SDS011;8700;48.222;16.342;2023-10-19T07:19:44;34.72;;;31.55;;
17169;SDS011;8700;48.222;16.342;2023-10-19T07:23:09;35.15;;;31.90;;
17169;SDS011;8700;48.222;16.342;2023-10-19T07:26:40;34.88;;;31.65;;
17169;SDS011;8700;48.222;16.342;2023-10-19T07:30:14;35.67;;;32.33;;
17169;SDS011;8700;48.222;16.342;2023-10-19T07:33:42;35.38;;;31.90;;
17169;SDS011;8700;48.222;16.342;2023-10-19T07:41:45;35.38;;;31.63;;
17169;SDS011;8700;48.222;16.342;2023-10-19T07:45:09;34.10;;;30.98;;
17169;SDS011;8700;48.222;16.342;2023-10-19T07:48:34;36.83;;;33.25;;
17169;SDS011;8700;48.222;16.342;2023-10-19T07:51:58;40.05;;;36.42;;
17169;SDS011;8700;48.222;16.342;2023-10-19T07:55:22;38.45;;;34.65;;
17169;SDS011;8700;48.222;16.342;2023-10-19T07:58:48;39.40;;;35.75;;
17169;SDS011;8700;48.222;16.342;2023-10-19T08:02:13;37.00;;;33.45;;
17169;SDS011;8700;48.222;16.342;2023-10-19T08:05:36;36.70;;;33.30;;
17169;SDS011;8700;48.222;16.342;2023-10-19T08:08:58;37.90;;;34.22;;
17169;SDS011;8700;48.222;16.342;2023-10-19T08:12:20;39.08;;;35.30;;
17169;SDS011;8700;48.222;16.342;2023-10-19T08:15:46;37.70;;;34.33;;
17169;SDS011;8700;48.222;16.342;2023-10-19T08:19:10;36.58;;;33.17;;
17169;SDS011;8700;48.222;16.342;2023-10-19T08:22:34;36.92;;;33.53;;
17169;SDS011;8700;48.222;16.342;2023-10-19T08:26:03;36.15;;;32.75;;
17169;SDS011;8700;48.222;16.342;2023-10-19T08:29:27;37.40;;;34.00;;
17169;SDS011;8700;48.222;16.342;2023-10-19T08:32:52;37.95;;;34.40;;
17169;SDS011;8700;48.222;16.342;2023-10-19T08:36:22;38.95;;;35.00;;
17169;SDS011;8700;48.222;16.342;2023-10-19T08:39:50;36.67;;;33.22;;
17169;SDS011;8700;48.222;16.342;2023-10-19T08:43:13;39.35;;;35.67;;
17169;SDS011;8700;48.222;16.342;2023-10-19T08:46:40;39.53;;;35.83;;
17169;SDS011;8700;48.222;16.342;2023-10-19T08:50:09;36.95;;;33.35;;
17169;SDS011;8700;48.222;16.342;2023-10-19T08:53:34;38.03;;;34.63;;
17169;SDS011;8700;48.222;16.342;2023-10-19T08:57:01;38.05;;;34.55;;
17169;SDS011;8700;48.222;16.342;2023-10-19T09:00:25;35.38;;;32.28;;
17169;SDS011;8700;48.222;16.342;2023-10-19T09:03:50;38.85;;;35.35;;
17169;SDS011;8700;48.222;16.342;2023-10-19T09:07:23;39.63;;;35.65;;
17169;SDS011;8700;48.222;16.342;2023-10-19T09:10:53;40.10;;;36.40;;
17169;SDS011;8700;48.222;16.342;2023-10-19T09:14:18;37.35;;;33.80;;
17169;SDS011;8700;48.222;16.342;2023-10-19T09:17:57;34.83;;;31.77;;
17169;SDS011;8700;48.222;16.342;2023-10-19T09:21:20;35.88;;;32.67;;
17169;SDS011;8700;48.222;16.342;2023-10-19T09:24:48;36.80;;;33.17;;
17169;SDS011;8700;48.222;16.342;2023-10-19T09:28:16;36.45;;;32.95;;
17169;SDS011;8700;48.222;16.342;2023-10-19T09:31:40;37.97;;;34.67;;
17169;SDS011;8700;48.222;16.342;2023-10-19T09:35:06;35.65;;;32.58;;
17169;SDS011;8700;48.222;16.342;2023-10-19T09:38:36;37.60;;;34.00;;
17169;SDS011;8700;48.222;16.342;2023-10-19T09:42:00;35.28;;;31.90;;
17169;SDS011;8700;48.222;16.342;2023-10-19T09:45:27;36.60;;;33.15;;
17169;SDS011;8700;48.222;16.342;2023-10-19T09:48:52;35.85;;;32.67;;
17169;SDS011;8700;48.222;16.342;2023-10-19T09:52:15;35.83;;;32.55;;
17169;SDS011;8700;48.222;16.342;2023-10-19T09:55:41;34.70;;;31.50;;
17169;SDS011;8700;48.222;16.342;2023-10-19T09:59:20;34.22;;;31.08;;
17169;SDS011;8700;48.222;16.342;2023-10-19T10:02:53;36.35;;;33.03;;
17169;SDS011;8700;48.222;16.342;2023-10-19T10:06:27;32.50;;;29.50;;
17169;SDS011;8700;48.222;16.342;2023-10-19T10:09:50;33.05;;;29.73;;
17169;SDS011;8700;48.222;16.342;2023-10-19T10:17:12;34.55;;;31.45;;
17169;SDS011;8700;48.222;16.342;2023-10-19T10:20:39;33.15;;;30.25;;
17169;SDS011;8700;48.222;16.342;2023-10-19T10:24:03;33.70;;;30.60;;
17169;SDS011;8700;48.222;16.342;2023-10-19T10:27:28;36.50;;;33.00;;
17169;SDS011;8700;48.222;16.342;2023-10-19T10:31:09;36.15;;;32.95;;
17169;SDS011;8700;48.222;16.342;2023-10-19T10:34:45;34.75;;;31.42;;
17169;SDS011;8700;48.222;16.342;2023-10-19T10:38:09;32.85;;;29.83;;
17169;SDS011;8700;48.222;16.342;2023-10-19T10:41:34;32.05;;;28.98;;
17169;SDS011;8700;48.222;16.342;2023-10-19T10:44:58;31.38;;;28.25;;
17169;SDS011;8700;48.222;16.342;2023-10-19T10:48:23;31.38;;;28.48;;
17169;SDS011;8700;48.222;16.342;2023-10-19T10:51:51;33.00;;;29.92;;
17169;SDS011;8700;48.222;16.342;2023-10-19T10:55:19;33.60;;;30.40;;
17169;SDS011;8700;48.222;16.342;2023-10-19T10:58:51;33.78;;;30.58;;
17169;SDS011;8700;48.222;16.342;2023-10-19T11:02:18;34.60;;;31.58;;
17169;SDS011;8700;48.222;16.342;2023-10-19T11:05:45;30.67;;;27.83;;
17169;SDS011;8700;48.222;16.342;2023-10-19T11:09:10;32.67;;;29.55;;
17169;SDS011;8700;48.222;16.342;2023-10-19T11:12:39;31.30;;;28.58;;
17169;SDS011;8700;48.222;16.342;2023-10-19T11:16:06;33.67;;;30.45;;
17169;SDS011;8700;48.222;16.342;2023-10-19T11:19:39;29.10;;;26.58;;
17169;SDS011;8700;48.222;16.342;2023-10-19T11:23:03;30.25;;;27.52;;
17169;SDS011;8700;48.222;16.342;2023-10-19T11:26:30;31.00;;;28.35;;
17169;SDS011;8700;48.222;16.342;2023-10-19T11:30:02;27.38;;;25.08;;
17169;SDS011;8700;48.222;16.342;2023-10-19T11:33:26;32.55;;;29.52;;
17169;SDS011;8700;48.222;16.342;2023-10-19T11:36:52;29.23;;;26.73;;
17169;SDS011;8700;48.222;16.342;2023-10-19T11:40:17;31.38;;;28.50;;
17169;SDS011;8700;48.222;16.342;2023-10-19T11:43:45;28.73;;;26.25;;
17169;SDS011;8700;48.222;16.342;2023-10-19T11:47:10;30.60;;;28.10;;
17169;SDS011;8700;48.222;16.342;2023-10-19T11:50:33;27.38;;;25.02;;
17169;SDS011;8700;48.222;16.342;2023-10-19T11:53:58;28.20;;;25.70;;
17169;SDS011;8700;48.222;16.342;2023-10-19T11:57:24;28.08;;;25.55;;
17169;SDS011;8700;48.222;16.342;2023-10-19T12:00:50;28.08;;;25.85;;
17169;SDS011;8700;48.222;16.342;2023-10-19T12:04:15;29.40;;;26.65;;
17169;SDS011;8700;48.222;16.342;2023-10-19T12:07:43;27.63;;;25.30;;
17169;SDS011;8700;48.222;16.342;2023-10-19T12:11:06;28.00;;;25.55;;
17169;SDS011;8700;48.222;16.342;2023-10-19T12:14:36;26.23;;;23.90;;
17169;SDS011;8700;48.222;16.342;2023-10-19T12:18:04;27.40;;;24.85;;
17169;SDS011;8700;48.222;16.342;2023-10-19T12:21:28;26.92;;;24.58;;
17169;SDS011;8700;48.222;16.342;2023-10-19T12:24:53;26.80;;;24.52;;
17169;SDS011;8700;48.222;16.342;2023-10-19T12:28:20;27.42;;;25.02;;
17169;SDS011;8700;48.222;16.342;2023-10-19T12:31:44;28.50;;;25.92;;
17169;SDS011;8700;48.222;16.342;2023-10-19T12:35:09;29.75;;;26.88;;
17169;SDS011;8700;48.222;16.342;2023-10-19T12:38:34;28.80;;;26.30;;
17169;SDS011;8700;48.222;16.342;2023-10-19T12:41:58;28.52;;;26.13;;
17169;SDS011;8700;48.222;16.342;2023-10-19T12:45:21;29.98;;;27.38;;
17169;SDS011;8700;48.222;16.342;2023-10-19T12:48:48;34.05;;;30.88;;
17169;SDS011;8700;48.222;16.342;2023-10-19T12:52:13;44.72;;;40.38;;
17169;SDS011;8700;48.222;16.342;2023-10-19T12:55:40;38.20;;;34.72;;
17169;SDS011;8700;48.222;16.342;2023-10-19T12:59:05;37.45;;;33.90;;
17169;SDS011;8700;48.222;16.342;2023-10-19T13:02:28;41.78;;;37.92;;
17169;SDS011;8700;48.222;16.342;2023-10-19T13:05:52;41.40;;;37.60;;
17169;SDS011;8700;48.222;16.342;2023-10-19T13:09:20;41.92;;;38.28;;
17169;SDS011;8700;48.222;16.342;2023-10-19T13:12:43;40.00;;;36.47;;
17169;SDS011;8700;48.222;16.342;2023-10-19T13:16:08;42.65;;;38.83;;
17169;SDS011;8700;48.222;16.342;2023-10-19T13:19:33;40.95;;;36.95;;
17169;SDS011;8700;48.222;16.342;2023-10-19T13:22:57;41.78;;;38.10;;
17169;SDS011;8700;48.222;16.342;2023-10-19T13:26:23;41.10;;;37.08;;
17169;SDS011;8700;48.222;16.342;2023-10-19T13:29:50;41.80;;;37.97;;
17169;SDS011;8700;48.222;16.342;2023-10-19T13:33:13;41.72;;;38.25;;
17169;SDS011;8700;48.222;16.342;2023-10-19T13:36:38;39.85;;;36.38;;
17169;SDS011;8700;48.222;16.342;2023-10-19T13:40:05;39.15;;;35.38;;
17169;SDS011;8700;48.222;16.342;2023-10-19T13:43:30;41.20;;;37.53;;
17169;SDS011;8700;48.222;16.342;2023-10-19T13:46:53;39.72;;;35.85;;
17169;SDS011;8700;48.222;16.342;2023-10-19T13:50:17;39.03;;;35.33;;
17169;SDS011;8700;48.222;16.342;2023-10-19T13:53:43;41.17;;;37.38;;
17169;SDS011;8700;48.222;16.342;2023-10-19T13:57:07;40.58;;;36.78;;
17169;SDS011;8700;48.222;16.342;2023-10-19T14:00:31;39.17;;;35.35;;
17169;SDS011;8700;48.222;16.342;2023-10-19T14:04:03;38.17;;;34.75;;
17169;SDS011;8700;48.222;16.342;2023-10-19T14:07:26;38.15;;;34.42;;
17169;SDS011;8700;48.222;16.342;2023-10-19T14:10:50;36.28;;;33.03;;
17169;SDS011;8700;48.222;16.342;2023-10-19T14:14:13;34.42;;;31.25;;
17169;SDS011;8700;48.222;16.342;2023-10-19T14:17:38;36.80;;;33.50;;
17169;SDS011;8700;48.222;16.342;2023-10-19T14:21:09;34.85;;;31.35;;
17169;SDS011;8700;48.222;16.342;2023-10-19T14:24:35;34.28;;;31.08;;
17169;SDS011;8700;48.222;16.342;2023-10-19T14:27:57;32.78;;;29.70;;
17169;SDS011;8700;48.222;16.342;2023-10-19T14:31:20;34.53;;;31.02;;
17169;SDS011;8700;48.222;16.342;2023-10-19T14:34:47;32.55;;;29.33;;
17169;SDS011;8700;48.222;16.342;2023-10-19T14:38:10;33.30;;;30.25;;
17169;SDS011;8700;48.222;16.342;2023-10-19T14:41:35;34.78;;;31.63;;
17169;SDS011;8700;48.222;16.342;2023-10-19T14:45:03;33.40;;;30.23;;
17169;SDS011;8700;48.222;16.342;2023-10-19T14:48:29;33.70;;;30.58;;
17169;SDS011;8700;48.222;16.342;2023-10-19T14:51:54;31.83;;;29.05;;
17169;SDS011;8700;48.222;16.342;2023-10-19T14:55:18;34.20;;;31.00;;
17169;SDS011;8700;48.222;16.342;2023-10-19T14:58:45;32.88;;;29.85;;
17169;SDS011;8700;48.222;16.342;2023-10-19T15:02:08;31.88;;;28.27;;
17169;SDS011;8700;48.222;16.342;2023-10-19T15:05:36;35.05;;;29.95;;
17169;SDS011;8700;48.222;16.342;2023-10-19T15:09:03;33.63;;;30.52;;
17169;SDS011;8700;48.222;16.342;2023-10-19T15:12:35;33.72;;;30.58;;
17169;SDS011;8700;48.222;16.342;2023-10-19T15:16:06;35.05;;;31.77;;
17169;SDS011;8700;48.222;16.342;2023-10-19T15:19:31;34.28;;;31.02;;
17169;SDS011;8700;48.222;16.342;2023-10-19T15:22:54;33.35;;;30.25;;
17169;SDS011;8700;48.222;16.342;2023-10-19T15:26:21;34.83;;;31.50;;
17169;SDS011;8700;48.222;16.342;2023-10-19T15:29:44;36.35;;;32.88;;
17169;SDS011;8700;48.222;16.342;2023-10-19T15:33:09;35.17;;;31.73;;
17169;SDS011;8700;48.222;16.342;2023-10-19T15:36:34;36.22;;;30.85;;
17169;SDS011;8700;48.222;16.342;2023-10-19T15:40:00;34.33;;;31.20;;
17169;SDS011;8700;48.222;16.342;2023-10-19T15:43:28;35.22;;;31.92;;
17169;SDS011;8700;48.222;16.342;2023-10-19T15:46:56;37.03;;;33.35;;
17169;SDS011;8700;48.222;16.342;2023-10-19T15:50:25;39.13;;;35.25;;
17169;SDS011;8700;48.222;16.342;2023-10-19T15:53:54;35.72;;;32.40;;
17169;SDS011;8700;48.222;16.342;2023-10-19T15:57:19;35.10;;;30.98;;
17169;SDS011;8700;48.222;16.342;2023-10-19T16:00:50;34.67;;;31.23;;
17169;SDS011;8700;48.222;16.342;2023-10-19T16:04:16;34.67;;;31.48;;
17169;SDS011;8700;48.222;16.342;2023-10-19T16:07:40;34.17;;;30.92;;
17169;SDS011;8700;48.222;16.342;2023-10-19T16:11:07;38.97;;;35.30;;
17169;SDS011;8700;48.222;16.342;2023-10-19T16:14:35;37.05;;;33.30;;
17169;SDS011;8700;48.222;16.342;2023-10-19T16:18:03;46.78;;;41.80;;
17169;SDS011;8700;48.222;16.342;2023-10-19T16:21:31;37.55;;;33.97;;
17169;SDS011;8700;48.222;16.342;2023-10-19T16:24:57;37.45;;;33.78;;
17169;SDS011;8700;48.222;16.342;2023-10-19T16:28:24;36.75;;;33.25;;
17169;SDS011;8700;48.222;16.342;2023-10-19T16:31:48;37.55;;;34.08;;
17169;SDS011;8700;48.222;16.342;2023-10-19T16:35:20;39.70;;;35.92;;
17169;SDS011;8700;48.222;16.342;2023-10-19T16:38:43;40.97;;;36.85;;
17169;SDS011;8700;48.222;16.342;2023-10-19T16:42:12;39.67;;;35.75;;
17169;SDS011;8700;48.222;16.342;2023-10-19T16:45:40;37.97;;;34.28;;
17169;SDS011;8700;48.222;16.342;2023-10-19T16:49:05;38.38;;;34.78;;
17169;SDS011;8700;48.222;16.342;2023-10-19T16:52:33;36.08;;;32.53;;
17169;SDS011;8700;48.222;16.342;2023-10-19T16:56:02;34.30;;;31.13;;
17169;SDS011;8700;48.222;16.342;2023-10-19T16:59:27;38.28;;;34.47;;
17169;SDS011;8700;48.222;16.342;2023-10-19T17:02:54;37.08;;;33.72;;
17169;SDS011;8700;48.222;16.342;2023-10-19T17:06:20;37.70;;;33.83;;
17169;SDS011;8700;48.222;16.342;2023-10-19T17:09:49;39.05;;;35.05;;
17169;SDS011;8700;48.222;16.342;2023-10-19T17:13:15;37.78;;;34.17;;
17169;SDS011;8700;48.222;16.342;2023-10-19T17:16:42;40.28;;;36.65;;
17169;SDS011;8700;48.222;16.342;2023-10-19T17:20:06;39.25;;;35.35;;
17169;SDS011;8700;48.222;16.342;2023-10-19T17:23:33;41.58;;;37.47;;
17169;SDS011;8700;48.222;16.342;2023-10-19T17:27:01;38.85;;;34.83;;
17169;SDS011;8700;48.222;16.342;2023-10-19T17:30:30;42.40;;;38.10;;
17169;SDS011;8700;48.222;16.342;2023-10-19T17:33:54;42.20;;;37.80;;
17169;SDS011;8700;48.222;16.342;2023-10-19T17:37:19;45.45;;;40.95;;
17169;SDS011;8700;48.222;16.342;2023-10-19T17:40:51;51.45;;;46.20;;
17169;SDS011;8700;48.222;16.342;2023-10-19T17:44:44;50.78;;;45.50;;
17169;SDS011;8700;48.222;16.342;2023-10-19T17:48:07;53.40;;;47.83;;
17169;SDS011;8700;48.222;16.342;2023-10-19T17:51:30;44.70;;;40.25;;
17169;SDS011;8700;48.222;16.342;2023-10-19T17:54:54;44.45;;;39.88;;
17169;SDS011;8700;48.222;16.342;2023-10-19T17:58:21;43.75;;;39.17;;
17169;SDS011;8700;48.222;16.342;2023-10-19T18:01:50;43.67;;;39.08;;
17169;SDS011;8700;48.222;16.342;2023-10-19T18:05:16;44.97;;;40.58;;
17169;SDS011;8700;48.222;16.342;2023-10-19T18:08:39;44.33;;;40.00;;
17169;SDS011;8700;48.222;16.342;2023-10-19T18:12:05;42.25;;;38.17;;
17169;SDS011;8700;48.222;16.342;2023-10-19T18:15:32;44.75;;;40.50;;
17169;SDS011;8700;48.222;16.342;2023-10-19T18:19:01;42.35;;;38.53;;
17169;SDS011;8700;48.222;16.342;2023-10-19T18:22:29;43.42;;;39.00;;
17169;SDS011;8700;48.222;16.342;2023-10-19T18:25:56;45.05;;;40.58;;
17169;SDS011;8700;48.222;16.342;2023-10-19T18:29:20;52.22;;;46.83;;
17169;SDS011;8700;48.222;16.342;2023-10-19T18:32:44;50.60;;;45.78;;
17169;SDS011;8700;48.222;16.342;2023-10-19T18:36:11;45.40;;;40.60;;
17169;SDS011;8700;48.222;16.342;2023-10-19T18:39:36;46.08;;;40.92;;
17169;SDS011;8700;48.222;16.342;2023-10-19T18:43:05;47.70;;;43.15;;
17169;SDS011;8700;48.222;16.342;2023-10-19T18:46:33;45.80;;;41.08;;
17169;SDS011;8700;48.222;16.342;2023-10-19T18:49:57;43.63;;;39.20;;
17169;SDS011;8700;48.222;16.342;2023-10-19T18:53:23;43.85;;;39.42;;
17169;SDS011;8700;48.222;16.342;2023-10-19T18:56:49;44.63;;;40.20;;
17169;SDS011;8700;48.222;16.342;2023-10-19T19:00:14;43.15;;;39.13;;
17169;SDS011;8700;48.222;16.342;2023-10-19T19:03:44;53.65;;;48.30;;
17169;SDS011;8700;48.222;16.342;2023-10-19T19:07:14;44.22;;;39.80;;
17169;SDS011;8700;48.222;16.342;2023-10-19T19:10:39;43.58;;;39.63;;
17169;SDS011;8700;48.222;16.342;2023-10-19T19:14:03;44.53;;;40.22;;
17169;SDS011;8700;48.222;16.342;2023-10-19T19:17:30;43.45;;;39.05;;
17169;SDS011;8700;48.222;16.342;2023-10-19T19:20:56;42.60;;;36.28;;
17169;SDS011;8700;48.222;16.342;2023-10-19T19:24:23;45.05;;;40.70;;
17169;SDS011;8700;48.222;16.342;2023-10-19T19:27:54;47.67;;;41.88;;
17169;SDS011;8700;48.222;16.342;2023-10-19T19:31:18;43.05;;;38.90;;
17169;SDS011;8700;48.222;16.342;2023-10-19T19:34:42;40.03;;;36.35;;
17169;SDS011;8700;48.222;16.342;2023-10-19T19:38:08;42.72;;;38.25;;
17169;SDS011;8700;48.222;16.342;2023-10-19T19:41:33;44.40;;;40.38;;
17169;SDS011;8700;48.222;16.342;2023-10-19T19:45:00;45.63;;;41.13;;
17169;SDS011;8700;48.222;16.342;2023-10-19T19:48:32;50.45;;;45.13;;
17169;SDS011;8700;48.222;16.342;2023-10-19T19:51:56;48.72;;;43.83;;
17169;SDS011;8700;48.222;16.342;2023-10-19T19:55:21;50.78;;;45.58;;
17169;SDS011;8700;48.222;16.342;2023-10-19T19:58:49;50.15;;;45.28;;
17169;SDS011;8700;48.222;16.342;2023-10-19T20:02:15;44.45;;;39.78;;
17169;SDS011;8700;48.222;16.342;2023-10-19T20:05:39;58.72;;;53.03;;
17169;SDS011;8700;48.222;16.342;2023-10-19T20:09:06;48.70;;;44.13;;
17169;SDS011;8700;48.222;16.342;2023-10-19T20:12:33;46.63;;;41.75;;
17169;SDS011;8700;48.222;16.342;2023-10-19T20:15:57;47.85;;;42.70;;